Time;durP1;ratioP1;P1;durP2;ratioP2;P2;SDS_P1;SDS_P2;PMS_P1;PMS_P2;Temp;Humidity;BMP_temperature;BMP_pressure;BME280_temperature;BME280_humidity;BME280_pressure;Samples;Min_cycle;Max_cycle;Signal;HPM_P1;HPM_P2
2023/01/09 00:01:18;;;;;;;31.42;21.38;;;4.60;99.90;;;;;;5009844;28;20075;-59
2023/01/09 00:03:44;;;;;;;28.70;19.60;;;4.60;99.90;;;;;;5011963;28;20091;-59
2023/01/09 00:06:10;;;;;;;35.05;20.75;;;4.60;99.90;;;;;;5011118;28;20396;-60
2023/01/09 00:08:36;;;;;;;32.90;18.55;;;4.60;99.90;;;;;;5012451;28;20113;-60
2023/01/09 00:11:02;;;;;;;31.50;19.15;;;4.60;99.90;;;;;;5019210;28;20367;-58
2023/01/09 00:13:27;;;;;;;34.58;20.35;;;4.50;99.90;;;;;;5014839;28;20029;-60
2023/01/09 00:15:53;;;;;;;32.40;20.48;;;4.50;99.90;;;;;;5012638;28;20061;-59
2023/01/09 00:18:18;;;;;;;36.92;20.83;;;4.50;99.90;;;;;;5005978;28;20375;-59
2023/01/09 00:20:44;;;;;;;39.47;21.42;;;4.50;99.90;;;;;;5015375;28;20064;-59
2023/01/09 00:23:10;;;;;;;43.75;22.98;;;4.50;99.90;;;;;;5011860;28;20026;-59
2023/01/09 00:25:35;;;;;;;44.83;22.48;;;4.50;99.90;;;;;;5013392;28;20486;-60
2023/01/09 00:28:01;;;;;;;42.38;22.35;;;4.50;99.90;;;;;;5012650;28;20121;-59
2023/01/09 00:30:27;;;;;;;43.45;22.63;;;4.50;99.90;;;;;;5009479;28;20040;-60
2023/01/09 00:32:54;;;;;;;50.15;23.55;;;4.50;99.90;;;;;;5013345;28;20462;-59
2023/01/09 00:35:22;;;;;;;51.25;24.48;;;4.50;99.90;;;;;;5009823;28;20367;-59
2023/01/09 00:37:47;;;;;;;48.95;24.88;;;4.50;99.90;;;;;;5008891;28;20037;-59
2023/01/09 00:40:15;;;;;;;52.10;24.80;;;4.40;99.90;;;;;;5006830;28;20014;-59
2023/01/09 00:42:42;;;;;;;51.38;25.30;;;4.40;99.90;;;;;;5013911;28;20129;-60
2023/01/09 00:45:13;;;;;;;47.10;23.35;;;4.40;99.90;;;;;;5011942;28;20383;-60
2023/01/09 00:47:46;;;;;;;60.35;26.13;;;4.40;99.90;;;;;;5014853;28;20037;-60
2023/01/09 00:50:21;;;;;;;64.38;27.02;;;4.40;99.90;;;;;;5014694;28;20045;-59
2023/01/09 00:52:50;;;;;;;65.25;27.98;;;4.40;99.90;;;;;;5011392;28;20038;-60
2023/01/09 00:55:16;;;;;;;55.33;24.80;;;4.40;99.90;;;;;;5016637;28;20024;-59
2023/01/09 00:57:42;;;;;;;63.47;24.92;;;4.40;99.90;;;;;;5013375;28;20046;-59
2023/01/09 01:00:09;;;;;;;63.15;28.60;;;4.40;99.90;;;;;;5012982;28;20780;-60
2023/01/09 01:02:34;;;;;;;57.80;25.77;;;4.40;99.90;;;;;;5011005;28;20018;-62
2023/01/09 01:07:44;;;;;;;58.97;26.30;;;4.40;99.90;;;;;;5008644;28;20080;-60
2023/01/09 01:10:19;;;;;;;54.30;24.90;;;4.40;99.90;;;;;;5018940;28;20022;-59
2023/01/09 01:12:46;;;;;;;64.97;27.02;;;4.40;99.90;;;;;;5011184;28;20041;-59
2023/01/09 01:15:12;;;;;;;51.88;25.15;;;4.40;99.90;;;;;;5014201;28;20107;-59
2023/01/09 01:17:39;;;;;;;51.80;25.50;;;4.30;99.90;;;;;;5009127;28;20049;-60
2023/01/09 01:20:07;;;;;;;60.42;26.38;;;4.30;99.90;;;;;;5011442;28;20030;-59
2023/01/09 01:22:33;;;;;;;55.05;25.63;;;4.30;99.90;;;;;;5017931;28;20128;-58
2023/01/09 01:24:58;;;;;;;58.92;26.58;;;4.30;99.90;;;;;;5014007;28;20152;-59
2023/01/09 01:27:24;;;;;;;60.65;26.35;;;4.30;99.90;;;;;;5011669;28;20026;-59
2023/01/09 01:29:50;;;;;;;65.88;27.98;;;4.30;99.90;;;;;;5003625;28;20045;-59
2023/01/09 01:32:16;;;;;;;58.75;25.05;;;4.30;99.90;;;;;;5003052;28;20030;-59
2023/01/09 01:34:41;;;;;;;62.67;25.50;;;4.30;99.90;;;;;;5008796;28;20101;-59
2023/01/09 01:37:07;;;;;;;60.50;24.77;;;4.30;99.90;;;;;;5007021;28;20034;-59
2023/01/09 01:39:33;;;;;;;55.00;25.00;;;4.30;99.90;;;;;;5014713;28;20026;-59
2023/01/09 01:41:58;;;;;;;57.45;25.33;;;4.40;99.90;;;;;;5012665;28;20515;-60
2023/01/09 01:45:01;;;;;;;63.22;26.02;;;4.40;99.90;;;;;;5008654;28;20384;-58
2023/01/09 01:47:51;;;;;;;54.90;24.83;;;4.40;99.90;;;;;;5010538;28;20030;-60
2023/01/09 01:50:36;;;;;;;58.78;25.58;;;4.40;99.90;;;;;;5010556;28;20026;-60
2023/01/09 01:53:32;;;;;;;56.35;24.45;;;4.40;99.90;;;;;;5007592;28;20057;-59
2023/01/09 01:56:00;;;;;;;56.15;24.35;;;4.40;99.90;;;;;;5004561;28;20018;-59
2023/01/09 01:58:27;;;;;;;56.03;24.50;;;4.40;99.90;;;;;;5010327;28;20026;-59
2023/01/09 02:00:52;;;;;;;51.67;24.55;;;4.40;99.90;;;;;;5012638;28;20104;-59
2023/01/09 02:03:22;;;;;;;59.72;26.30;;;4.40;99.90;;;;;;5014041;28;20586;-60
2023/01/09 02:05:48;;;;;;;57.50;24.73;;;4.40;99.90;;;;;;5007177;28;20030;-60
2023/01/09 02:08:14;;;;;;;59.60;24.05;;;4.40;99.90;;;;;;5011280;28;20379;-60
2023/01/09 02:10:40;;;;;;;60.40;24.73;;;4.40;99.90;;;;;;5006732;28;20784;-60
2023/01/09 02:13:07;;;;;;;66.55;24.27;;;4.40;99.90;;;;;;5006302;28;20034;-60
2023/01/09 02:15:39;;;;;;;51.67;23.30;;;4.40;99.90;;;;;;5003303;28;20022;-60
2023/01/09 02:18:31;;;;;;;67.55;23.60;;;4.40;99.90;;;;;;5003592;28;20113;-59
2023/01/09 02:21:02;;;;;;;61.25;24.77;;;4.40;99.90;;;;;;5004078;28;20490;-60
2023/01/09 02:23:47;;;;;;;58.47;23.77;;;4.40;99.90;;;;;;5010432;28;20568;-59
2023/01/09 02:26:46;;;;;;;64.15;23.73;;;4.40;99.90;;;;;;5007912;28;20037;-59
2023/01/09 02:29:45;;;;;;;60.40;23.85;;;4.40;99.90;;;;;;5004310;28;20738;-60
2023/01/09 02:32:31;;;;;;;61.72;23.42;;;4.40;99.90;;;;;;5006782;28;20486;-59
2023/01/09 02:35:18;;;;;;;67.85;25.63;;;4.40;99.90;;;;;;5003151;28;20030;-59
2023/01/09 02:37:54;;;;;;;53.53;24.85;;;4.40;99.90;;;;;;5013301;28;20025;-60
2023/01/09 02:40:32;;;;;;;59.47;25.00;;;4.40;99.90;;;;;;5009417;28;20026;-61
2023/01/09 02:42:59;;;;;;;63.95;25.15;;;4.40;99.90;;;;;;5008197;28;20576;-59
2023/01/09 02:45:24;;;;;;;66.40;26.23;;;4.30;99.90;;;;;;5004278;28;20030;-59
2023/01/09 02:47:50;;;;;;;57.08;25.00;;;4.30;99.90;;;;;;5005640;28;20040;-59
2023/01/09 02:50:35;;;;;;;65.57;24.67;;;4.30;99.90;;;;;;5008934;28;20075;-60
2023/01/09 02:53:24;;;;;;;65.95;25.80;;;4.30;99.90;;;;;;5013013;28;20770;-59
2023/01/09 02:56:13;;;;;;;57.15;24.50;;;4.30;99.90;;;;;;5008761;28;20513;-58
2023/01/09 02:59:09;;;;;;;57.58;24.58;;;4.30;99.90;;;;;;5011614;28;20028;-60
2023/01/09 03:01:43;;;;;;;68.20;25.58;;;4.30;99.90;;;;;;5008407;28;20506;-60
2023/01/09 03:04:14;;;;;;;54.75;23.98;;;4.30;99.90;;;;;;5009938;28;20030;-61
2023/01/09 03:06:50;;;;;;;56.58;21.67;;;4.30;99.90;;;;;;5007152;28;20408;-60
2023/01/09 03:09:21;;;;;;;61.83;22.83;;;4.30;99.90;;;;;;5005974;28;20050;-61
2023/01/09 03:11:51;;;;;;;69.32;25.02;;;4.30;99.90;;;;;;5007748;28;20100;-60
2023/01/09 03:14:21;;;;;;;67.95;24.58;;;4.40;99.90;;;;;;5010533;28;20125;-60
2023/01/09 03:16:50;;;;;;;50.40;22.55;;;4.40;99.90;;;;;;5009183;28;20448;-60
2023/01/09 03:19:20;;;;;;;57.80;22.08;;;4.40;99.90;;;;;;5011231;28;20464;-59
2023/01/09 03:21:46;;;;;;;57.53;22.33;;;4.50;99.90;;;;;;5006035;28;20581;-60
2023/01/09 03:24:12;;;;;;;58.45;22.15;;;4.50;99.90;;;;;;5007888;28;20079;-61
2023/01/09 03:26:38;;;;;;;56.60;21.52;;;4.60;99.90;;;;;;5007664;28;20026;-60
2023/01/09 03:29:04;;;;;;;53.50;22.30;;;4.60;99.90;;;;;;5006798;28;20034;-60
2023/01/09 03:31:30;;;;;;;59.65;21.50;;;4.60;99.90;;;;;;5004768;28;20555;-58
2023/01/09 03:33:55;;;;;;;66.53;23.55;;;4.60;99.90;;;;;;5001053;28;20045;-60
2023/01/09 03:36:22;;;;;;;49.78;19.08;;;4.60;99.90;;;;;;5002209;28;20026;-59
2023/01/09 03:38:48;;;;;;;61.25;21.30;;;4.70;99.90;;;;;;5010736;28;20022;-60
2023/01/09 03:41:13;;;;;;;81.63;22.13;;;4.70;99.90;;;;;;5017484;28;20034;-59
2023/01/09 03:43:39;;;;;;;74.90;23.88;;;4.70;99.90;;;;;;5014990;28;20032;-60
2023/01/09 03:46:05;;;;;;;51.53;22.25;;;4.70;99.90;;;;;;5016830;28;20053;-61
2023/01/09 03:48:30;;;;;;;52.42;19.77;;;4.70;99.90;;;;;;5012872;28;20026;-61
2023/01/09 03:50:56;;;;;;;58.58;20.42;;;4.70;99.90;;;;;;5010204;28;20026;-60
2023/01/09 03:53:25;;;;;;;60.83;20.92;;;4.80;99.90;;;;;;5010844;28;20517;-59
2023/01/09 03:55:53;;;;;;;58.55;21.38;;;4.80;99.90;;;;;;5009373;28;20091;-60
2023/01/09 03:58:20;;;;;;;54.30;19.88;;;4.80;99.90;;;;;;5012155;28;20054;-59
2023/01/09 04:00:51;;;;;;;56.30;21.85;;;4.80;99.90;;;;;;5009392;28;20092;-59
2023/01/09 04:03:19;;;;;;;50.80;20.40;;;4.80;99.90;;;;;;5015644;28;20045;-59
2023/01/09 04:05:46;;;;;;;55.85;20.92;;;4.70;99.90;;;;;;5013318;28;20037;-59
2023/01/09 04:08:13;;;;;;;54.53;20.15;;;4.80;99.90;;;;;;5015446;28;20050;-59
2023/01/09 04:10:39;;;;;;;56.80;20.52;;;4.80;99.90;;;;;;5009073;28;20053;-59
2023/01/09 04:13:04;;;;;;;61.75;21.00;;;4.80;99.90;;;;;;5005156;28;20022;-59
2023/01/09 04:15:30;;;;;;;44.38;19.55;;;4.80;99.90;;;;;;5011916;28;20029;-59
2023/01/09 04:17:56;;;;;;;55.92;20.42;;;4.80;99.90;;;;;;5010733;28;20033;-59
2023/01/09 04:20:21;;;;;;;45.30;20.58;;;4.80;99.90;;;;;;5016555;28;20030;-60
2023/01/09 04:22:47;;;;;;;46.38;22.13;;;4.80;99.90;;;;;;5012172;28;20116;-60
2023/01/09 04:25:12;;;;;;;51.85;20.80;;;4.80;99.90;;;;;;5007835;28;20044;-59
2023/01/09 04:27:38;;;;;;;56.40;20.98;;;4.80;99.90;;;;;;5005752;28;20030;-60
2023/01/09 04:30:04;;;;;;;52.75;21.42;;;4.80;99.90;;;;;;5016882;28;20483;-60
2023/01/09 04:32:30;;;;;;;59.65;22.77;;;4.80;99.90;;;;;;5011137;28;20697;-60
2023/01/09 04:34:56;;;;;;;54.83;21.63;;;4.80;99.90;;;;;;5007917;28;20030;-59
2023/01/09 04:37:22;;;;;;;51.53;20.88;;;4.90;99.90;;;;;;5010469;28;20022;-59
2023/01/09 04:39:50;;;;;;;53.83;22.08;;;4.80;99.90;;;;;;5011350;28;20014;-59
2023/01/09 04:42:15;;;;;;;52.13;21.38;;;4.90;99.90;;;;;;5007734;28;20030;-60
2023/01/09 04:44:43;;;;;;;58.53;21.98;;;4.90;99.90;;;;;;5009273;28;20083;-60
2023/01/09 04:47:09;;;;;;;48.63;21.63;;;4.80;99.90;;;;;;5009717;28;20041;-62
2023/01/09 04:49:34;;;;;;;52.35;21.83;;;4.90;99.90;;;;;;5010671;28;20083;-59
2023/01/09 04:52:00;;;;;;;48.17;21.00;;;4.90;99.90;;;;;;5012555;28;20501;-60
2023/01/09 04:54:26;;;;;;;55.67;21.17;;;4.90;99.90;;;;;;5012253;28;20029;-60
2023/01/09 04:56:52;;;;;;;51.58;20.50;;;4.90;99.90;;;;;;5014846;28;20097;-60
2023/01/09 04:59:17;;;;;;;52.50;20.23;;;4.90;99.90;;;;;;5005504;28;20030;-59
2023/01/09 05:01:43;;;;;;;54.20;19.88;;;4.90;99.90;;;;;;5011707;28;20393;-58
2023/01/09 05:04:10;;;;;;;48.75;20.00;;;4.90;99.90;;;;;;5010731;28;20064;-60
2023/01/09 05:06:35;;;;;;;49.33;21.00;;;5.00;99.90;;;;;;5006832;28;20497;-60
2023/01/09 05:09:01;;;;;;;50.92;20.08;;;5.00;99.90;;;;;;5008246;28;20030;-59
2023/01/09 05:11:27;;;;;;;55.03;21.75;;;5.00;99.90;;;;;;5005210;28;20026;-59
2023/01/09 05:13:53;;;;;;;54.83;20.23;;;5.00;99.90;;;;;;5006853;28;20401;-61
2023/01/09 05:16:19;;;;;;;46.97;19.63;;;5.00;99.90;;;;;;5010831;28;20121;-60
2023/01/09 05:18:45;;;;;;;50.83;20.83;;;5.00;99.90;;;;;;5009783;28;20021;-60
2023/01/09 05:21:11;;;;;;;57.05;21.92;;;5.00;99.90;;;;;;5007931;28;20026;-60
2023/01/09 05:23:37;;;;;;;56.67;21.05;;;5.00;99.90;;;;;;5008058;28;20125;-58
2023/01/09 05:26:03;;;;;;;50.58;20.55;;;5.00;99.90;;;;;;5009353;28;20018;-59
2023/01/09 05:28:29;;;;;;;52.33;19.63;;;5.00;99.90;;;;;;5008566;28;20488;-59
2023/01/09 05:30:56;;;;;;;58.67;20.65;;;5.00;99.90;;;;;;5017175;28;20458;-60
2023/01/09 05:33:22;;;;;;;59.88;21.25;;;5.10;99.90;;;;;;5018640;28;20190;-59
2023/01/09 05:35:47;;;;;;;48.28;21.05;;;5.10;99.90;;;;;;5007349;28;20065;-59
2023/01/09 05:38:13;;;;;;;54.08;21.20;;;5.10;99.90;;;;;;5014658;28;20071;-59
2023/01/09 05:40:39;;;;;;;45.05;20.40;;;5.10;99.90;;;;;;5010844;28;20026;-60
2023/01/09 05:43:04;;;;;;;53.38;20.35;;;5.10;99.90;;;;;;5006617;28;20021;-61
2023/01/09 05:45:30;;;;;;;45.60;20.17;;;5.10;99.90;;;;;;5012324;28;20030;-60
2023/01/09 05:47:56;;;;;;;48.63;18.40;;;5.10;99.90;;;;;;5015200;28;20033;-58
2023/01/09 05:50:22;;;;;;;49.40;19.80;;;5.10;99.90;;;;;;5010948;28;20053;-59
2023/01/09 05:52:47;;;;;;;63.08;20.90;;;5.10;99.90;;;;;;5002432;28;20023;-60
2023/01/09 05:55:13;;;;;;;59.15;20.45;;;5.20;99.90;;;;;;5012187;28;20032;-60
2023/01/09 05:57:38;;;;;;;71.25;21.77;;;5.20;99.90;;;;;;5006713;28;20038;-60
2023/01/09 06:00:05;;;;;;;50.67;20.23;;;5.20;99.90;;;;;;5008904;28;20112;-60
2023/01/09 06:02:30;;;;;;;57.75;19.75;;;5.20;99.90;;;;;;5011984;28;20080;-59
2023/01/09 06:04:56;;;;;;;58.42;20.45;;;5.20;99.90;;;;;;5006078;28;20022;-58
2023/01/09 06:07:21;;;;;;;63.05;20.60;;;5.30;99.90;;;;;;5011912;28;20482;-59
2023/01/09 06:09:47;;;;;;;51.08;21.55;;;5.30;99.90;;;;;;5011837;28;20030;-59
2023/01/09 06:12:12;;;;;;;61.95;19.58;;;5.30;99.90;;;;;;5006987;28;20050;-60
2023/01/09 06:14:38;;;;;;;55.05;20.17;;;5.30;99.90;;;;;;5003759;28;20073;-59
2023/01/09 06:17:05;;;;;;;52.85;19.33;;;5.30;99.90;;;;;;5008510;28;20032;-60
2023/01/09 06:19:30;;;;;;;72.03;20.45;;;5.40;99.90;;;;;;5010231;28;20140;-60
2023/01/09 06:21:56;;;;;;;33.47;15.75;;;5.40;99.90;;;;;;5010066;28;20153;-60
2023/01/09 06:24:21;;;;;;;29.98;14.77;;;5.40;99.90;;;;;;5008083;28;20117;-60
2023/01/09 06:26:47;;;;;;;16.08;11.48;;;5.50;99.90;;;;;;5003429;28;20017;-61
2023/01/09 06:29:14;;;;;;;19.15;12.48;;;5.70;99.90;;;;;;5005528;28;20091;-59
2023/01/09 06:31:39;;;;;;;16.27;11.50;;;5.90;99.90;;;;;;5007778;28;20033;-60
2023/01/09 06:34:05;;;;;;;16.58;10.82;;;6.10;99.90;;;;;;5017193;28;20022;-61
2023/01/09 06:36:30;;;;;;;13.73;10.75;;;6.20;99.90;;;;;;5014831;28;20359;-61
2023/01/09 06:38:56;;;;;;;8.45;7.10;;;6.30;99.90;;;;;;5013170;28;20048;-60
2023/01/09 06:41:22;;;;;;;11.80;8.20;;;6.40;99.90;;;;;;5004074;28;20537;-60
2023/01/09 06:43:47;;;;;;;6.53;5.68;;;6.50;99.90;;;;;;5011371;28;20022;-60
2023/01/09 06:46:13;;;;;;;4.38;3.55;;;6.60;99.90;;;;;;5013414;28;20013;-59
2023/01/09 06:48:38;;;;;;;3.33;2.92;;;6.70;99.90;;;;;;5013250;28;20040;-61
2023/01/09 06:51:04;;;;;;;3.08;2.58;;;6.80;99.90;;;;;;5009682;28;20030;-59
2023/01/09 06:53:30;;;;;;;3.97;2.78;;;6.80;99.90;;;;;;5010777;28;20038;-60
2023/01/09 06:55:55;;;;;;;2.60;2.40;;;6.80;99.90;;;;;;5007395;28;20052;-60
2023/01/09 06:58:21;;;;;;;1.70;1.60;;;6.80;99.90;;;;;;5011811;28;20496;-60
2023/01/09 07:00:48;;;;;;;2.35;1.70;;;6.80;99.90;;;;;;5013392;28;20017;-59
2023/01/09 07:03:18;;;;;;;1.30;1.10;;;6.80;99.90;;;;;;5013833;28;20107;-60
2023/01/09 07:05:44;;;;;;;1.70;1.23;;;6.80;99.90;;;;;;5011752;28;20087;-60
2023/01/09 07:08:10;;;;;;;1.15;1.00;;;6.80;99.90;;;;;;5008492;28;20048;-60
2023/01/09 07:10:36;;;;;;;0.73;0.70;;;6.70;99.90;;;;;;5006049;28;20038;-60
2023/01/09 07:13:01;;;;;;;0.80;0.70;;;6.70;99.90;;;;;;5012603;28;20184;-60
2023/01/09 07:15:27;;;;;;;0.88;0.80;;;6.70;99.90;;;;;;5013549;28;20581;-59
2023/01/09 07:17:53;;;;;;;1.35;0.80;;;6.60;99.90;;;;;;5010121;28;20061;-60
2023/01/09 07:20:19;;;;;;;1.15;0.70;;;6.60;99.90;;;;;;5012546;28;20149;-61
2023/01/09 07:22:45;;;;;;;0.95;0.70;;;6.50;99.90;;;;;;5014531;28;20036;-60
2023/01/09 07:25:12;;;;;;;0.98;0.73;;;6.50;99.90;;;;;;5014418;28;20041;-60
2023/01/09 07:27:37;;;;;;;1.98;0.57;;;6.50;99.90;;;;;;5017576;28;20021;-60
2023/01/09 07:30:04;;;;;;;0.50;0.50;;;6.50;99.90;;;;;;5015261;28;20033;-60
2023/01/09 07:32:30;;;;;;;1.77;0.80;;;6.40;99.90;;;;;;5010813;28;20026;-60
2023/01/09 07:34:56;;;;;;;0.60;0.60;;;6.40;99.90;;;;;;5012087;28;20038;-60
2023/01/09 07:37:21;;;;;;;2.95;0.70;;;6.40;99.90;;;;;;5011804;28;20025;-59
2023/01/09 07:39:47;;;;;;;0.90;0.80;;;6.40;99.90;;;;;;5013942;28;20026;-60
2023/01/09 07:42:13;;;;;;;1.50;0.80;;;6.30;99.90;;;;;;5019943;28;20068;-60
2023/01/09 07:44:39;;;;;;;0.70;0.70;;;6.30;99.90;;;;;;5014978;28;20061;-61
2023/01/09 07:47:04;;;;;;;0.60;0.60;;;6.30;99.90;;;;;;5009547;28;20537;-60
2023/01/09 07:49:30;;;;;;;0.75;0.70;;;6.30;99.90;;;;;;5005362;28;20029;-59
2023/01/09 07:51:56;;;;;;;0.70;0.60;;;6.40;99.90;;;;;;5008342;28;20387;-60
2023/01/09 07:54:21;;;;;;;0.93;0.60;;;6.40;99.90;;;;;;5011854;28;20069;-60
2023/01/09 07:56:47;;;;;;;0.60;0.60;;;6.40;99.90;;;;;;5015793;28;20030;-60
2023/01/09 07:59:13;;;;;;;1.50;0.52;;;6.50;99.90;;;;;;5010990;28;20049;-60
2023/01/09 08:01:39;;;;;;;1.27;0.60;;;6.40;99.90;;;;;;5009928;28;20030;-60
2023/01/09 08:04:04;;;;;;;1.17;0.52;;;6.40;99.90;;;;;;5009311;28;20030;-59
2023/01/09 08:06:30;;;;;;;0.80;0.80;;;6.40;99.90;;;;;;5004292;28;20044;-61
2023/01/09 08:08:56;;;;;;;0.60;0.60;;;6.40;99.90;;;;;;5007536;28;20105;-62
2023/01/09 08:11:22;;;;;;;0.88;0.60;;;6.40;99.90;;;;;;5013014;28;20037;-61
2023/01/09 08:13:48;;;;;;;1.38;0.60;;;6.40;99.90;;;;;;5009995;28;20129;-62
2023/01/09 08:16:14;;;;;;;0.45;0.45;;;6.40;99.90;;;;;;5011514;28;20793;-61
2023/01/09 08:18:41;;;;;;;0.50;0.50;;;6.40;99.90;;;;;;5014227;28;20391;-60
2023/01/09 08:21:07;;;;;;;1.15;0.60;;;6.40;99.90;;;;;;5008913;28;20034;-61
2023/01/09 08:23:32;;;;;;;0.50;0.45;;;6.40;99.90;;;;;;5008348;28;20029;-62
2023/01/09 08:25:58;;;;;;;0.88;0.50;;;6.40;99.90;;;;;;5020609;28;20026;-60
2023/01/09 08:28:24;;;;;;;1.55;0.50;;;6.40;99.90;;;;;;5014054;28;20098;-61
2023/01/09 08:30:50;;;;;;;0.65;0.40;;;6.40;99.90;;;;;;5016675;28;20024;-61
2023/01/09 08:33:15;;;;;;;4.25;0.45;;;6.50;99.90;;;;;;5008872;28;20382;-60
2023/01/09 08:35:44;;;;;;;1.92;0.60;;;6.50;99.90;;;;;;5010443;28;20852;-60
2023/01/09 08:38:10;;;;;;;1.38;0.50;;;6.50;99.90;;;;;;5013387;28;20018;-60
2023/01/09 08:40:36;;;;;;;1.38;0.68;;;6.50;99.90;;;;;;5002131;28;20023;-60
2023/01/09 08:48:30;;;;;;;0.55;0.50;;;6.60;99.90;;;;;;5007813;28;20165;-61
2023/01/09 08:50:56;;;;;;;1.38;0.40;;;6.70;99.90;;;;;;5013386;28;20046;-60
2023/01/09 08:53:21;;;;;;;1.13;0.60;;;6.70;99.90;;;;;;5015102;28;20041;-59
2023/01/09 08:55:47;;;;;;;1.00;0.55;;;6.70;99.90;;;;;;5012592;28;20474;-60
2023/01/09 08:58:12;;;;;;;2.65;0.63;;;6.70;99.90;;;;;;5004939;28;20093;-58
2023/01/09 09:00:38;;;;;;;0.80;0.60;;;6.70;99.90;;;;;;5010065;28;20292;-59
2023/01/09 09:03:04;;;;;;;1.73;0.82;;;6.70;99.90;;;;;;5007240;28;20057;-59
2023/01/09 09:05:31;;;;;;;0.65;0.43;;;6.80;99.90;;;;;;5011921;28;20026;-58
2023/01/09 09:07:57;;;;;;;0.65;0.50;;;6.80;99.90;;;;;;5004691;28;20030;-66
2023/01/09 09:10:25;;;;;;;0.80;0.50;;;6.90;99.90;;;;;;5002199;28;20022;-58
2023/01/09 09:12:53;;;;;;;1.20;0.63;;;6.90;99.90;;;;;;5013495;28;20018;-59
2023/01/09 09:15:22;;;;;;;2.30;0.60;;;7.00;99.90;;;;;;5009011;28;20034;-60
2023/01/09 09:18:03;;;;;;;2.72;0.80;;;7.00;99.90;;;;;;5017958;28;20072;-58
2023/01/09 09:20:31;;;;;;;1.85;0.77;;;7.10;99.90;;;;;;5015880;28;20588;-59
2023/01/09 09:22:57;;;;;;;0.77;0.60;;;7.10;99.90;;;;;;5020282;28;20025;-60
2023/01/09 09:25:23;;;;;;;0.70;0.65;;;7.10;99.90;;;;;;5017509;28;20533;-58
2023/01/09 09:27:49;;;;;;;2.20;0.50;;;7.00;99.90;;;;;;5012397;28;20030;-58
2023/01/09 09:30:16;;;;;;;1.13;0.55;;;7.00;99.90;;;;;;5016845;28;20033;-59
2023/01/09 09:32:42;;;;;;;1.42;0.60;;;6.90;99.90;;;;;;5007928;28;20137;-60
2023/01/09 09:35:08;;;;;;;2.15;0.80;;;6.80;99.90;;;;;;5004785;28;20935;-58
2023/01/09 09:37:35;;;;;;;0.90;0.50;;;6.80;99.90;;;;;;5008767;28;20054;-57
2023/01/09 09:40:00;;;;;;;1.05;0.55;;;6.80;99.90;;;;;;5015819;28;20018;-58
2023/01/09 09:46:09;;;;;;;0.73;0.70;;;6.70;99.90;;;;;;5011389;28;20049;-59
2023/01/09 09:48:47;;;;;;;3.13;0.70;;;6.70;99.90;;;;;;5011831;28;20068;-59
2023/01/09 09:51:31;;;;;;;1.48;0.77;;;6.70;99.90;;;;;;5015086;28;20021;-58
2023/01/09 09:53:58;;;;;;;0.75;0.73;;;6.70;99.90;;;;;;5013915;28;20117;-59
2023/01/09 09:56:27;;;;;;;1.60;0.70;;;6.60;99.90;;;;;;5016251;28;20022;-58
2023/01/09 09:59:02;;;;;;;2.67;1.20;;;6.60;99.90;;;;;;5015527;28;20080;-58
2023/01/09 10:01:59;;;;;;;2.85;0.50;;;6.60;99.90;;;;;;5008800;28;20035;-59
2023/01/09 10:04:27;;;;;;;2.38;0.70;;;6.60;99.90;;;;;;5004122;28;20029;-59
2023/01/09 10:06:59;;;;;;;1.20;0.60;;;6.60;99.90;;;;;;5012084;28;20026;-60
2023/01/09 10:09:49;;;;;;;1.95;0.93;;;6.60;99.90;;;;;;5013951;28;20026;-60
2023/01/09 10:12:32;;;;;;;2.80;0.70;;;6.60;99.90;;;;;;5007472;28;20033;-59
2023/01/09 10:15:00;;;;;;;1.88;0.43;;;6.70;99.90;;;;;;5008065;28;20492;-57
2023/01/09 10:17:46;;;;;;;1.73;0.85;;;6.60;99.90;;;;;;5011731;28;20041;-58
2023/01/09 10:20:24;;;;;;;1.25;0.75;;;6.50;99.90;;;;;;5006185;28;20030;-58
2023/01/09 10:23:08;;;;;;;2.05;0.80;;;6.60;99.90;;;;;;5005607;28;20064;-59
2023/01/09 10:25:43;;;;;;;0.95;0.65;;;6.70;99.90;;;;;;5006571;28;20589;-57
2023/01/09 10:28:49;;;;;;;4.32;0.85;;;6.80;99.90;;;;;;5011903;28;20072;-58
2023/01/09 10:31:33;;;;;;;1.48;0.60;;;6.90;99.90;;;;;;5007599;28;20029;-59
2023/01/09 10:34:22;;;;;;;2.25;0.60;;;7.00;99.90;;;;;;5009999;28;20030;-59
2023/01/09 10:36:54;;;;;;;1.38;0.63;;;7.00;99.90;;;;;;5011351;28;20105;-57
2023/01/09 10:39:25;;;;;;;0.63;0.60;;;7.10;99.90;;;;;;5004468;28;20080;-58
2023/01/09 10:42:03;;;;;;;2.30;0.90;;;7.10;99.90;;;;;;5003811;28;20030;-58
2023/01/09 10:44:41;;;;;;;1.05;0.75;;;7.10;99.90;;;;;;5001541;28;20040;-58
2023/01/09 10:47:18;;;;;;;1.45;0.60;;;7.10;99.90;;;;;;5002936;28;20022;-58
2023/01/09 10:49:46;;;;;;;1.25;0.57;;;7.10;99.90;;;;;;5004350;28;20033;-59
2023/01/09 10:52:16;;;;;;;2.47;0.90;;;7.10;99.90;;;;;;5008585;28;20030;-59
2023/01/09 10:54:54;;;;;;;3.10;0.95;;;7.10;99.90;;;;;;5005125;28;20048;-58
2023/01/09 10:57:47;;;;;;;3.33;0.93;;;7.00;99.90;;;;;;5001945;28;20038;-58
2023/01/09 11:00:19;;;;;;;1.90;0.80;;;7.00;99.90;;;;;;5002842;28;20043;-58
2023/01/09 11:02:46;;;;;;;2.72;0.90;;;6.90;99.90;;;;;;5014808;28;20022;-58
2023/01/09 11:05:16;;;;;;;1.33;0.80;;;6.90;99.90;;;;;;5008670;28;20065;-58
2023/01/09 11:07:44;;;;;;;1.83;0.80;;;6.90;99.90;;;;;;5013113;28;20035;-59
2023/01/09 11:10:12;;;;;;;3.92;1.00;;;6.90;99.90;;;;;;5015128;28;20789;-60
2023/01/09 11:12:38;;;;;;;9.45;1.00;;;7.00;99.90;;;;;;5010789;28;20455;-59
2023/01/09 11:15:19;;;;;;;2.42;1.00;;;7.10;99.90;;;;;;5006604;28;20513;-59
2023/01/09 11:17:50;;;;;;;4.77;0.80;;;7.20;99.90;;;;;;5003649;28;20547;-59
2023/01/09 11:20:15;;;;;;;0.85;0.50;;;7.30;99.90;;;;;;5013077;28;20721;-59
2023/01/09 11:22:56;;;;;;;1.65;0.88;;;7.30;99.90;;;;;;5007551;28;20128;-59
2023/01/09 11:25:24;;;;;;;1.80;0.63;;;7.40;99.90;;;;;;5007000;28;20069;-57
2023/01/09 11:28:03;;;;;;;1.98;0.63;;;7.40;99.90;;;;;;5011832;28;20022;-58
2023/01/09 11:30:49;;;;;;;0.88;0.65;;;7.30;99.90;;;;;;5011824;28;20145;-60
2023/01/09 11:33:20;;;;;;;2.33;0.70;;;7.30;99.90;;;;;;5010981;28;20505;-58
2023/01/09 11:36:03;;;;;;;2.97;1.00;;;7.10;99.90;;;;;;5010689;28;20401;-59
2023/01/09 11:38:49;;;;;;;2.95;1.00;;;7.10;99.90;;;;;;5011029;28;20688;-59
2023/01/09 11:41:21;;;;;;;1.60;0.73;;;7.00;99.90;;;;;;5006044;28;20030;-59
2023/01/09 11:43:48;;;;;;;;;;;7.00;99.90;;;;;;5010450;28;20018;-59
2023/01/09 11:46:36;;;;;;;5.38;1.00;;;6.90;99.90;;;;;;5013904;28;20292;-59
2023/01/09 11:49:21;;;;;;;6.57;1.27;;;6.80;99.90;;;;;;5007029;28;20153;-57
2023/01/09 11:52:03;;;;;;;2.67;1.00;;;6.80;99.90;;;;;;5002899;28;20044;-60
2023/01/09 11:54:36;;;;;;;2.13;1.00;;;6.80;99.90;;;;;;5008791;28;20781;-59
2023/01/09 11:57:02;;;;;;;1.20;0.80;;;6.80;99.90;;;;;;5004430;28;20033;-58
2023/01/09 11:59:30;;;;;;;2.95;0.85;;;6.90;99.90;;;;;;5003142;28;20034;-59
2023/01/09 12:02:14;;;;;;;4.50;0.85;;;7.00;99.90;;;;;;5005363;28;20027;-57
2023/01/09 12:04:55;;;;;;;5.15;0.90;;;7.10;99.90;;;;;;5011248;28;20017;-58
2023/01/09 12:07:52;;;;;;;2.38;0.80;;;7.10;99.90;;;;;;5014679;28;20030;-58
2023/01/09 12:10:46;;;;;;;3.75;0.90;;;7.10;99.90;;;;;;5011209;28;20095;-58
2023/01/09 12:13:49;;;;;;;2.88;0.80;;;7.10;99.90;;;;;;5001483;28;20025;-59
2023/01/09 12:16:33;;;;;;;2.00;0.70;;;7.20;99.90;;;;;;5000297;28;20046;-59
2023/01/09 12:19:04;;;;;;;2.95;0.80;;;7.40;99.90;;;;;;5016115;28;20033;-58
2023/01/09 12:21:30;;;;;;;2.83;0.70;;;7.40;99.90;;;;;;5018988;28;20054;-59
2023/01/09 12:24:21;;;;;;;1.90;0.50;;;7.50;99.90;;;;;;5008871;28;20069;-58
2023/01/09 12:27:10;;;;;;;3.53;0.80;;;7.40;99.90;;;;;;4986726;28;20065;-58
2023/01/09 12:29:56;;;;;;;3.25;0.70;;;7.30;99.90;;;;;;5017505;28;20022;-58
2023/01/09 12:32:31;;;;;;;1.67;0.70;;;7.30;99.90;;;;;;5016427;28;20029;-57
2023/01/09 12:34:58;;;;;;;2.83;0.60;;;7.20;99.90;;;;;;5015145;28;20033;-58
2023/01/09 12:37:50;;;;;;;3.75;0.88;;;7.10;99.90;;;;;;5017066;28;20021;-58
2023/01/09 12:40:15;;;;;;;1.67;0.60;;;7.10;99.90;;;;;;5014643;28;20025;-59
2023/01/09 12:43:03;;;;;;;2.67;0.98;;;7.20;99.90;;;;;;5011319;28;20018;-59
2023/01/09 12:45:31;;;;;;;3.35;0.70;;;7.20;99.90;;;;;;5007308;28;20026;-59
2023/01/09 12:48:11;;;;;;;1.67;0.70;;;7.20;99.90;;;;;;5022185;28;20745;-58
2023/01/09 12:51:02;;;;;;;2.63;0.60;;;7.20;99.90;;;;;;5014205;28;20038;-58
2023/01/09 12:53:39;;;;;;;3.53;0.82;;;7.10;99.90;;;;;;5012601;28;20034;-58
2023/01/09 12:56:31;;;;;;;3.25;1.13;;;7.10;99.90;;;;;;5008588;28;20018;-58
2023/01/09 12:58:59;;;;;;;;;;;7.00;99.90;;;;;;5014934;28;20112;-59
2023/01/09 13:01:37;;;;;;;4.47;0.80;;;7.00;99.90;;;;;;5032863;28;19901;-57
2023/01/09 13:04:41;;;;;;;1.17;0.77;;;6.90;99.90;;;;;;5017817;28;20032;-58
2023/01/09 13:07:41;;;;;;;3.58;0.90;;;6.90;99.90;;;;;;4959182;28;20106;-60
2023/01/09 13:10:31;;;;;;;3.67;0.80;;;7.00;99.90;;;;;;4988758;28;20042;-58
2023/01/09 13:13:05;;;;;;;1.10;0.75;;;7.00;99.90;;;;;;5003506;28;20129;-59
2023/01/09 13:15:36;;;;;;;2.10;0.60;;;7.10;99.90;;;;;;5007718;28;20030;-59
2023/01/09 13:18:13;;;;;;;3.22;0.80;;;7.20;99.90;;;;;;5010880;28;20037;-58